PROFILE

 METAR AND TAF INFORMATION
ADDS - METARS form results

(2054 UTC 18 February 2019)
http://aviationweather.gov/metar/data/
 
RJBB 182030Z AUTO 06011KT 9999 -RA SCT050 OVC060 08/04 Q1024 NOSIG
RJBB 182000Z AUTO 06009KT 8000 -RA FEW035 BKN060 OVC070 08/04 Q1024 NOSIG
TAF RJBB 181708Z 1818/2000 08006KT 9000 -RA FEW008 SCT020 BKN030 TEMPO 1903/1906 4000 RA BR TEMPO 1906/1909 3000 RA BR FEW005 BKN008 BKN015 BECMG 1909/1912 26010KT 

 AIRPORT MAP

 RUNWAY INFORMATION
Runway 06L Runway length 13123 ft Runway width 196 ft
Runway elevation 24 ft Runway displaced threshold 0 ft Runway heading 51
Runway 24R Runway length 13123 ft Runway width 196 ft
Runway elevation 32 ft Runway displaced threshold 0 ft Runway heading 231
Runway 06R Runway length 11483 ft Runway width 196 ft
Runway elevation 6 ft Runway displaced threshold 0 ft Runway heading 51
Runway 24L Runway length 11483 ft Runway width 196 ft
Runway elevation 15 ft Runway displaced threshold 0 ft Runway heading 231

 AIRPORT FREQUENCIES
Type APP Name APP Frequency 120.25 MHZ
Type ATIS Name ATIS Frequency 127.85 MHZ
Type CLD Name CLNC DEL Frequency 121.9 MHZ
Type DEP Name DEP Frequency 119.2 MHZ
Type GND Name GND Frequency 121.6 MHZ
Type TCA Name TCA Frequency 121.1 MHZ
Type TWR Name TWR Frequency 118.2 MHZ

 AIRPORT NEAR NAVIGATION AIDS
Type NDB Name Kansai Frequency 346 KHZ
Type VOR-DME Name Kansai Frequency 111800 KHZ
Type VOR-DME Name Shigi Frequency 111600 KHZ
Type VOR-DME Name Shinoda Frequency 112300 KHZ
Type VOR-DME Name Tomo Frequency 116400 KHZ